createdAt,value
2018-07-11T00:01:19.932Z,3.30
2018-07-11T00:03:50.492Z,3.20
2018-07-11T00:06:21.075Z,6.67
2018-07-11T00:08:49.279Z,3.50
2018-07-11T00:11:17.538Z,3.50
2018-07-11T00:13:46.644Z,4.63
2018-07-11T00:16:15.639Z,3.83
2018-07-11T00:18:43.904Z,7.50
2018-07-11T00:21:12.068Z,3.57
2018-07-11T00:23:40.317Z,3.83
2018-07-11T00:26:09.783Z,3.60
2018-07-11T00:28:37.936Z,5.53
2018-07-11T00:31:06.140Z,3.63
2018-07-11T00:33:34.285Z,4.57
2018-07-11T00:36:02.606Z,4.27
2018-07-11T00:38:31.039Z,3.87
2018-07-11T00:40:59.508Z,3.70
2018-07-11T00:43:28.211Z,3.43
2018-07-11T00:45:56.653Z,3.33
2018-07-11T00:48:24.902Z,4.40
2018-07-11T00:50:53.095Z,4.93
2018-07-11T00:53:21.968Z,3.43
2018-07-11T00:55:50.223Z,3.10
2018-07-11T00:58:25.167Z,3.70
2018-07-11T01:00:59.060Z,3.73
2018-07-11T01:03:27.235Z,3.90
2018-07-11T01:05:55.384Z,4.07
2018-07-11T01:08:23.803Z,3.03
2018-07-11T01:10:51.992Z,4.17
2018-07-11T01:13:20.355Z,4.40
2018-07-11T01:15:48.551Z,8.90
2018-07-11T01:18:17.435Z,8.57
2018-07-11T01:20:46.435Z,5.27
2018-07-11T01:23:14.700Z,3.87
2018-07-11T01:25:42.963Z,4.33
2018-07-11T01:28:11.494Z,3.30
2018-07-11T01:30:39.755Z,3.90
2018-07-11T01:33:07.891Z,3.87
2018-07-11T01:35:36.379Z,4.03
2018-07-11T01:38:04.575Z,3.93
2018-07-11T01:40:33.624Z,3.70
2018-07-11T01:43:01.902Z,3.70
2018-07-11T01:45:30.108Z,3.83
2018-07-11T01:47:58.296Z,4.77
2018-07-11T01:50:26.491Z,4.47
2018-07-11T01:52:57.414Z,4.03
2018-07-11T01:55:26.714Z,5.40
2018-07-11T01:57:57.247Z,4.80
2018-07-11T02:00:25.897Z,3.90
2018-07-11T02:02:54.591Z,5.37
2018-07-11T02:05:24.069Z,4.80
2018-07-11T02:07:52.801Z,6.47
2018-07-11T02:10:21.088Z,5.03
2018-07-11T02:12:49.269Z,4.67
2018-07-11T02:15:17.980Z,5.53
2018-07-11T02:17:46.139Z,4.40
2018-07-11T02:20:15.939Z,5.57
2018-07-11T02:22:44.649Z,5.20
2018-07-11T02:25:13.880Z,5.23
2018-07-11T02:27:42.210Z,4.77
2018-07-11T02:30:10.493Z,4.50
2018-07-11T02:32:38.647Z,5.23
2018-07-11T02:35:06.932Z,5.23
2018-07-11T02:37:35.111Z,7.87
2018-07-11T02:40:03.647Z,4.93
2018-07-11T02:42:32.063Z,5.70
2018-07-11T02:45:00.374Z,6.87
2018-07-11T02:47:34.073Z,5.53
2018-07-11T02:50:02.235Z,4.90
2018-07-11T02:52:31.043Z,5.50
2018-07-11T02:54:59.295Z,8.73
2018-07-11T02:57:27.473Z,7.27
2018-07-11T02:59:55.825Z,5.43
2018-07-11T03:02:24.285Z,6.60
2018-07-11T03:04:52.524Z,6.23
2018-07-11T03:07:20.701Z,5.40
2018-07-11T03:09:49.012Z,5.17
2018-07-11T03:12:17.340Z,5.20
2018-07-11T03:14:47.165Z,5.93
2018-07-11T03:17:15.456Z,6.00
2018-07-11T03:19:43.809Z,6.50
2018-07-11T03:22:12.268Z,6.60
2018-07-11T03:24:40.692Z,5.83
2018-07-11T03:27:09.152Z,5.43
2018-07-11T03:29:37.352Z,6.03
2018-07-11T03:32:05.505Z,6.30
2018-07-11T03:34:33.980Z,5.63
2018-07-11T03:37:02.492Z,5.53
2018-07-11T03:39:30.876Z,5.43
2018-07-11T03:41:59.134Z,6.60
2018-07-11T03:44:27.292Z,7.80
2018-07-11T03:46:55.597Z,6.30
2018-07-11T03:49:23.747Z,7.67
2018-07-11T03:51:51.960Z,6.13
2018-07-11T03:54:20.228Z,5.97
2018-07-11T03:56:48.399Z,5.90
2018-07-11T03:59:16.588Z,10.67
2018-07-11T04:01:44.896Z,8.30
2018-07-11T04:04:13.029Z,6.60
2018-07-11T04:06:41.308Z,6.53
2018-07-11T04:09:09.565Z,9.87
2018-07-11T04:11:37.763Z,8.60
2018-07-11T04:14:06.019Z,7.00
2018-07-11T04:16:34.303Z,6.63
2018-07-11T04:19:02.605Z,5.97
2018-07-11T04:21:31.114Z,9.90
2018-07-11T04:23:59.347Z,6.83
2018-07-11T04:26:27.948Z,5.93
2018-07-11T04:28:56.099Z,7.70
2018-07-11T04:31:24.709Z,8.00
2018-07-11T04:33:53.083Z,6.43
2018-07-11T04:36:21.255Z,9.00
2018-07-11T04:38:49.444Z,7.20
2018-07-11T04:41:17.867Z,6.80
2018-07-11T04:43:46.166Z,8.10
2018-07-11T04:46:14.455Z,6.77
2018-07-11T04:48:42.936Z,9.07
2018-07-11T04:51:11.102Z,7.03
2018-07-11T04:53:39.299Z,5.83
2018-07-11T04:56:07.805Z,7.53
2018-07-11T04:58:36.268Z,14.90
2018-07-11T05:01:04.535Z,7.70
2018-07-11T05:03:32.820Z,10.30
2018-07-11T05:06:00.988Z,7.57
2018-07-11T05:08:29.180Z,8.53
2018-07-11T05:10:57.452Z,8.13
2018-07-11T05:13:25.738Z,10.10
2018-07-11T05:15:53.888Z,7.83
2018-07-11T05:18:22.071Z,8.20
2018-07-11T05:20:50.367Z,8.77
2018-07-11T05:23:18.523Z,8.33
2018-07-11T05:25:46.667Z,9.80
2018-07-11T05:28:14.886Z,7.90
2018-07-11T05:30:43.264Z,10.73
2018-07-11T05:33:11.528Z,9.03
2018-07-11T05:35:39.740Z,11.27
2018-07-11T05:38:07.981Z,9.20
2018-07-11T05:40:36.484Z,7.80
2018-07-11T05:43:04.821Z,8.60
2018-07-11T05:45:33.334Z,9.33
2018-07-11T05:48:01.571Z,8.13
2018-07-11T05:50:30.095Z,8.17
2018-07-11T05:52:58.295Z,10.00
2018-07-11T05:55:26.460Z,11.37
2018-07-11T05:57:54.868Z,8.10
2018-07-11T06:00:23.128Z,8.67
2018-07-11T06:02:51.343Z,10.40
2018-07-11T06:05:19.673Z,10.70
2018-07-11T06:07:48.083Z,11.90
2018-07-11T06:10:16.312Z,11.00
2018-07-11T06:12:44.704Z,9.50
2018-07-11T06:15:12.886Z,12.97
2018-07-11T06:17:41.052Z,14.63
2018-07-11T06:20:09.417Z,10.73
2018-07-11T06:22:37.579Z,9.40
2018-07-11T06:25:06.075Z,13.23
2018-07-11T06:27:34.313Z,9.20
2018-07-11T06:30:03.055Z,13.00
2018-07-11T06:32:31.269Z,14.53
2018-07-11T06:34:59.792Z,7.93
2018-07-11T06:37:28.015Z,7.90
2018-07-11T06:39:56.163Z,7.87
2018-07-11T06:42:24.486Z,7.60
2018-07-11T06:44:53.153Z,16.50
2018-07-11T06:47:21.356Z,10.57
2018-07-11T06:49:49.640Z,9.40
2018-07-11T06:52:18.161Z,9.00
2018-07-11T06:54:46.459Z,10.00
2018-07-11T06:57:14.804Z,9.07
2018-07-11T06:59:42.979Z,9.37
2018-07-11T07:02:11.196Z,11.97
2018-07-11T07:04:39.473Z,9.17
2018-07-11T07:07:08.023Z,8.63
2018-07-11T07:09:36.211Z,9.37
2018-07-11T07:12:04.497Z,10.43
2018-07-11T07:14:32.659Z,11.13
2018-07-11T07:17:00.872Z,9.40
2018-07-11T07:19:29.116Z,9.53
2018-07-11T07:21:57.281Z,9.50
2018-07-11T07:24:25.575Z,9.63
2018-07-11T07:26:54.047Z,10.07
2018-07-11T07:29:22.221Z,9.97
2018-07-11T07:31:50.515Z,8.77
2018-07-11T07:34:18.717Z,9.70
2018-07-11T07:36:47.372Z,9.10
2018-07-11T07:39:15.904Z,9.60
2018-07-11T07:41:44.152Z,9.33
2018-07-11T07:44:12.946Z,10.57
2018-07-11T07:46:45.536Z,9.77
2018-07-11T07:49:14.094Z,10.33
2018-07-11T07:51:42.264Z,10.67
2018-07-11T07:54:10.494Z,9.40
2018-07-11T07:56:38.715Z,10.53
2018-07-11T07:59:07.435Z,10.47
2018-07-11T08:01:35.660Z,9.40
2018-07-11T08:04:03.814Z,9.63
2018-07-11T08:06:32.217Z,10.97
2018-07-11T08:09:00.415Z,9.87
2018-07-11T08:11:28.579Z,10.30
2018-07-11T08:13:56.759Z,10.80
2018-07-11T08:16:25.451Z,10.30
2018-07-11T08:18:53.695Z,10.20
2018-07-11T08:21:22.281Z,10.33
2018-07-11T08:23:56.120Z,10.47
2018-07-11T08:26:29.803Z,12.27
2018-07-11T08:29:09.168Z,10.73
2018-07-11T08:31:43.920Z,12.50
2018-07-11T08:36:27.368Z,11.60
2018-07-11T08:40:04.988Z,10.20
2018-07-11T08:43:43.669Z,10.97
2018-07-11T08:46:17.475Z,9.57
2018-07-11T08:49:07.371Z,9.80
2018-07-11T08:52:45.268Z,11.40
2018-07-11T08:55:21.617Z,9.53
2018-07-11T08:57:54.763Z,18.77
2018-07-11T09:00:28.587Z,8.37
2018-07-11T09:03:06.395Z,8.80
2018-07-11T09:05:40.434Z,8.80
2018-07-11T09:08:14.050Z,8.10
2018-07-11T09:10:45.850Z,7.93
2018-07-11T09:13:19.666Z,8.80
2018-07-11T09:15:53.453Z,8.10
2018-07-11T09:19:25.368Z,7.53
2018-07-11T09:21:59.118Z,8.60
2018-07-11T09:24:32.526Z,7.00
2018-07-11T09:27:00.755Z,7.17
2018-07-11T09:29:29.064Z,7.60
2018-07-11T09:31:57.342Z,8.03
2018-07-11T09:34:25.603Z,7.07
2018-07-11T09:36:54.402Z,7.93
2018-07-11T09:39:22.696Z,6.90
2018-07-11T09:41:50.973Z,6.93
2018-07-11T09:44:19.156Z,10.27
2018-07-11T09:46:47.507Z,7.20
2018-07-11T09:49:15.904Z,8.93
2018-07-11T09:51:44.423Z,9.07
2018-07-11T09:54:12.649Z,10.00
2018-07-11T09:56:40.809Z,8.37
2018-07-11T09:59:09.009Z,8.37
2018-07-11T10:01:37.372Z,9.53
2018-07-11T10:04:05.565Z,9.60
2018-07-11T10:06:33.720Z,8.40
2018-07-11T10:09:02.232Z,10.50
2018-07-11T10:11:30.434Z,8.23
2018-07-11T10:13:58.668Z,7.60
2018-07-11T10:16:27.218Z,7.03
2018-07-11T10:18:58.703Z,7.33
2018-07-11T10:21:27.550Z,6.13
2018-07-11T10:23:55.696Z,6.53
2018-07-11T10:26:24.557Z,5.80
2018-07-11T10:28:53.560Z,5.97
2018-07-11T10:31:21.978Z,4.83
2018-07-11T10:33:50.320Z,4.83
2018-07-11T10:36:18.702Z,5.87
2018-07-11T10:38:47.406Z,5.20
2018-07-11T10:41:15.943Z,5.43
2018-07-11T10:43:44.942Z,5.53
2018-07-11T10:46:13.189Z,5.00
2018-07-11T10:48:41.393Z,5.07
2018-07-11T10:51:10.304Z,6.23
2018-07-11T10:53:38.600Z,7.73
2018-07-11T10:56:06.807Z,5.10
2018-07-11T10:58:35.263Z,4.20
2018-07-11T11:01:05.702Z,4.50
2018-07-11T11:03:33.150Z,6.70
2018-07-11T11:06:01.327Z,6.60
2018-07-11T11:08:30.206Z,4.90
2018-07-11T11:10:58.464Z,5.43
2018-07-11T11:13:26.973Z,8.57
2018-07-11T11:15:55.693Z,5.30
2018-07-11T11:18:24.443Z,7.87
2018-07-11T11:20:54.068Z,5.63
2018-07-11T11:23:22.407Z,6.70
2018-07-11T11:25:50.743Z,4.43
2018-07-11T11:28:19.169Z,4.67
2018-07-11T11:30:47.364Z,4.37
2018-07-11T11:33:15.567Z,3.60
2018-07-11T11:35:43.871Z,5.83
2018-07-11T11:38:12.188Z,4.17
2018-07-11T11:40:40.433Z,5.47
2018-07-11T11:43:08.839Z,4.03
2018-07-11T11:45:37.119Z,4.30
2018-07-11T11:48:05.326Z,4.23
2018-07-11T11:50:33.504Z,4.33
2018-07-11T11:53:02.176Z,6.57
2018-07-11T11:55:30.835Z,4.43
2018-07-11T11:57:59.036Z,6.17
2018-07-11T12:00:27.220Z,4.30
2018-07-11T12:02:55.512Z,3.50
2018-07-11T12:05:24.033Z,3.83
2018-07-11T12:07:52.203Z,3.90
2018-07-11T12:10:20.350Z,3.50
2018-07-11T12:12:48.531Z,3.93
2018-07-11T12:15:17.020Z,3.97
2018-07-11T12:17:45.475Z,4.37
2018-07-11T12:20:13.907Z,3.43
2018-07-11T12:22:42.123Z,4.10
2018-07-11T12:25:10.274Z,7.03
2018-07-11T12:27:38.546Z,4.00
2018-07-11T12:30:06.715Z,3.70
2018-07-11T12:32:35.041Z,4.13
2018-07-11T12:35:03.443Z,4.23
2018-07-11T12:37:31.676Z,4.60
2018-07-11T12:39:59.836Z,4.60
2018-07-11T12:42:28.016Z,4.47
2018-07-11T12:44:56.399Z,4.57
2018-07-11T12:47:30.472Z,5.13
2018-07-11T12:49:58.692Z,4.30
2018-07-11T12:52:26.853Z,3.83
2018-07-11T12:54:55.100Z,4.03
2018-07-11T12:57:23.408Z,3.83
2018-07-11T12:59:51.602Z,7.00
2018-07-11T13:02:19.925Z,5.83
2018-07-11T13:04:48.279Z,4.80
2018-07-11T13:07:16.846Z,4.30
2018-07-11T13:09:45.024Z,4.27
2018-07-11T13:12:13.500Z,4.23
2018-07-11T13:14:42.199Z,4.53
2018-07-11T13:17:10.361Z,3.97
2018-07-11T13:19:38.536Z,3.30
2018-07-11T13:22:06.845Z,3.83
2018-07-11T13:24:35.382Z,3.33
2018-07-11T13:27:03.901Z,3.30
2018-07-11T13:29:33.735Z,3.97
2018-07-11T13:32:02.504Z,4.23
2018-07-11T13:34:30.667Z,7.53
2018-07-11T13:36:58.847Z,3.60
2018-07-11T13:39:27.007Z,3.97
2018-07-11T13:41:55.168Z,4.43
2018-07-11T13:44:23.382Z,4.20
2018-07-11T13:46:51.739Z,4.40
2018-07-11T13:49:19.963Z,4.00
2018-07-11T13:51:48.241Z,5.70
2018-07-11T13:54:16.483Z,4.03
2018-07-11T13:56:45.258Z,5.10
2018-07-11T13:59:13.448Z,7.40
2018-07-11T14:01:41.712Z,3.90
2018-07-11T14:04:10.091Z,4.50
2018-07-11T14:06:38.321Z,3.87
2018-07-11T14:09:06.554Z,5.90
2018-07-11T14:11:34.727Z,3.63
2018-07-11T14:14:02.921Z,4.03
2018-07-11T14:16:31.373Z,4.20
2018-07-11T14:18:59.754Z,5.23
2018-07-11T14:21:27.940Z,4.37
2018-07-11T14:23:56.115Z,4.00
2018-07-11T14:26:24.387Z,4.10
2018-07-11T14:28:53.383Z,5.97
2018-07-11T14:31:21.989Z,3.10
2018-07-11T14:33:50.344Z,4.13
2018-07-11T14:36:18.753Z,3.30
2018-07-11T14:38:46.919Z,3.47
2018-07-11T14:41:15.129Z,3.63
2018-07-11T14:43:43.723Z,3.23
2018-07-11T14:46:12.564Z,3.53
2018-07-11T14:48:41.119Z,2.87
2018-07-11T14:51:09.340Z,3.27
2018-07-11T14:53:37.788Z,4.33
2018-07-11T14:56:06.099Z,6.80
2018-07-11T14:58:34.316Z,3.60
2018-07-11T15:01:02.548Z,2.90
2018-07-11T15:03:31.244Z,3.27
2018-07-11T15:05:59.412Z,4.00
2018-07-11T15:08:27.638Z,2.90
2018-07-11T15:10:56.063Z,3.83
2018-07-11T15:13:24.541Z,3.30
2018-07-11T15:15:52.700Z,3.20
2018-07-11T15:18:21.191Z,4.03
2018-07-11T15:20:49.560Z,3.83
2018-07-11T15:23:18.047Z,3.17
2018-07-11T15:25:46.352Z,3.40
2018-07-11T15:28:14.744Z,3.53
2018-07-11T15:30:43.559Z,3.00
2018-07-11T15:33:11.767Z,3.50
2018-07-11T15:35:39.975Z,3.20
2018-07-11T15:38:08.206Z,3.30
2018-07-11T15:40:36.428Z,2.33
2018-07-11T15:43:04.596Z,2.33
2018-07-11T15:45:32.779Z,2.43
2018-07-11T15:48:01.052Z,3.27
2018-07-11T15:50:29.519Z,4.63
2018-07-11T15:52:57.956Z,2.20
2018-07-11T15:55:26.285Z,5.20
2018-07-11T15:57:55.691Z,2.47
2018-07-11T16:00:29.791Z,4.50
2018-07-11T16:02:59.410Z,2.03
2018-07-11T16:05:29.796Z,2.57
2018-07-11T16:07:59.967Z,2.37
2018-07-11T16:10:29.995Z,2.40
2018-07-11T16:12:58.331Z,2.30
2018-07-11T16:15:26.912Z,2.33
2018-07-11T16:17:55.068Z,4.70
2018-07-11T16:20:23.542Z,3.03
2018-07-11T16:22:51.970Z,1.90
2018-07-11T16:25:20.179Z,2.27
2018-07-11T16:27:48.849Z,2.00
2018-07-11T16:30:17.045Z,4.40
2018-07-11T16:32:45.506Z,4.80
2018-07-11T16:35:14.256Z,2.30
2018-07-11T16:37:42.496Z,2.33
2018-07-11T16:40:11.063Z,2.57
2018-07-11T16:42:39.249Z,2.00
2018-07-11T16:45:08.048Z,2.30
2018-07-11T16:47:36.700Z,2.23
2018-07-11T16:50:05.080Z,3.37
2018-07-11T16:52:33.363Z,2.40
2018-07-11T16:55:01.836Z,3.53
2018-07-11T16:57:36.049Z,2.00
2018-07-11T17:00:05.776Z,2.53
2018-07-11T17:02:34.231Z,2.83
2018-07-11T17:05:03.768Z,5.80
2018-07-11T17:07:33.400Z,2.30
2018-07-11T17:10:04.354Z,2.10
2018-07-11T17:12:32.897Z,4.20
2018-07-11T17:15:01.501Z,2.03
2018-07-11T17:17:33.240Z,4.57
2018-07-11T17:20:04.039Z,2.30
2018-07-11T17:22:34.527Z,2.20
2018-07-11T17:25:05.161Z,2.83
2018-07-11T17:27:33.401Z,2.23
2018-07-11T17:30:02.633Z,2.73
2018-07-11T17:32:31.264Z,2.53
2018-07-11T17:34:59.426Z,2.80
2018-07-11T17:37:28.868Z,3.00
2018-07-11T17:40:02.600Z,3.07
2018-07-11T17:42:30.800Z,2.87
2018-07-11T17:45:00.903Z,2.70
2018-07-11T17:47:30.247Z,2.67
2018-07-11T17:50:03.986Z,2.67
2018-07-11T17:52:43.229Z,2.93
2018-07-11T17:55:14.469Z,2.43
2018-07-11T17:57:46.697Z,2.80
2018-07-11T18:00:18.087Z,2.23
2018-07-11T18:03:50.677Z,2.80
2018-07-11T18:06:23.169Z,2.50
2018-07-11T18:09:22.320Z,4.30
2018-07-11T18:11:53.723Z,2.50
2018-07-11T18:14:29.043Z,5.30
2018-07-11T18:16:58.756Z,3.13
2018-07-11T18:20:31.554Z,3.27
2018-07-11T18:24:06.384Z,3.00
2018-07-11T18:26:38.550Z,2.67
2018-07-11T18:29:17.219Z,2.63
2018-07-11T18:31:51.057Z,3.57
2018-07-11T18:34:25.040Z,2.90
2018-07-11T18:36:59.708Z,3.20
2018-07-11T18:39:30.429Z,2.67
2018-07-11T18:42:06.826Z,2.97
2018-07-11T18:44:41.469Z,3.10
2018-07-11T18:47:15.324Z,3.60
2018-07-11T18:49:47.543Z,2.90
2018-07-11T18:52:17.800Z,2.50
2018-07-11T18:54:54.967Z,3.00
2018-07-11T18:57:27.824Z,3.07
2018-07-11T19:00:02.598Z,3.23
2018-07-11T19:02:31.236Z,2.87
2018-07-11T19:05:03.996Z,4.33
2018-07-11T19:07:34.613Z,4.33
2018-07-11T19:10:06.538Z,2.93
2018-07-11T19:12:38.260Z,2.73
2018-07-11T19:15:10.760Z,3.00
2018-07-11T19:17:46.626Z,3.43
2018-07-11T19:20:20.459Z,3.20
2018-07-11T19:23:52.312Z,2.87
2018-07-11T19:26:32.072Z,2.73
2018-07-11T19:29:05.876Z,3.50
2018-07-11T19:31:41.316Z,3.00
2018-07-11T19:34:10.640Z,3.00
2018-07-11T19:36:49.704Z,3.00
2018-07-11T19:39:25.514Z,3.00
2018-07-11T19:42:58.186Z,3.33
2018-07-11T19:45:32.088Z,2.80
2018-07-11T19:48:02.631Z,2.70
2018-07-11T19:50:34.676Z,6.90
2018-07-11T19:54:11.576Z,2.80
2018-07-11T19:56:45.174Z,2.70
2018-07-11T19:59:13.973Z,2.40
2018-07-11T20:01:42.488Z,2.97
2018-07-11T20:04:10.949Z,2.70
2018-07-11T20:06:39.219Z,2.97
2018-07-11T20:09:08.041Z,2.87
2018-07-11T20:11:36.314Z,4.57
2018-07-11T20:14:04.459Z,3.43
2018-07-11T20:16:32.734Z,3.07
2018-07-11T20:19:01.423Z,4.00
2018-07-11T20:21:29.889Z,3.30
2018-07-11T20:23:58.177Z,3.10
2018-07-11T20:26:26.488Z,3.13
2018-07-11T20:28:54.927Z,3.43
2018-07-11T20:31:23.122Z,4.20
2018-07-11T20:33:51.634Z,4.60
2018-07-11T20:36:20.208Z,6.57
2018-07-11T20:38:48.383Z,6.77
2018-07-11T20:41:16.572Z,12.83
2018-07-11T20:43:45.730Z,11.30
2018-07-11T20:46:13.972Z,11.27
2018-07-11T20:48:42.307Z,10.23
2018-07-11T20:51:10.515Z,10.40
2018-07-11T20:53:39.227Z,13.23
2018-07-11T20:56:07.543Z,9.00
2018-07-11T20:58:41.339Z,9.47
2018-07-11T21:01:14.950Z,8.10
2018-07-11T21:05:53.287Z,10.07
2018-07-11T21:08:27.100Z,8.20
2018-07-11T21:11:32.304Z,6.30
2018-07-11T21:14:08.068Z,4.90
2018-07-11T21:16:41.677Z,5.93
2018-07-11T21:19:11.119Z,4.83
2018-07-11T21:21:40.748Z,5.30
2018-07-11T21:24:09.829Z,5.17
2018-07-11T21:26:38.977Z,6.30
2018-07-11T21:29:07.429Z,5.97
2018-07-11T21:31:35.607Z,3.70
2018-07-11T21:34:03.780Z,5.80
2018-07-11T21:36:32.115Z,4.73
2018-07-11T21:39:00.536Z,4.90
2018-07-11T21:41:28.765Z,6.40
2018-07-11T21:43:56.975Z,5.97
2018-07-11T21:46:25.241Z,4.80
2018-07-11T21:48:53.387Z,5.10
2018-07-11T21:51:21.580Z,5.27
2018-07-11T21:53:49.782Z,7.03
2018-07-11T21:56:18.048Z,4.10
2018-07-11T21:58:46.273Z,3.90
2018-07-11T22:01:15.900Z,4.20
2018-07-11T22:03:44.132Z,4.97
2018-07-11T22:06:12.472Z,5.00
2018-07-11T22:08:40.712Z,6.70
2018-07-11T22:11:09.267Z,5.10
2018-07-11T22:13:37.775Z,6.27
2018-07-11T22:16:06.156Z,6.40
2018-07-11T22:18:36.196Z,6.50
2018-07-11T22:21:04.752Z,5.23
2018-07-11T22:23:32.428Z,6.00
2018-07-11T22:26:00.620Z,6.93
2018-07-11T22:28:28.264Z,6.70
2018-07-11T22:30:55.844Z,5.90
2018-07-11T22:33:23.523Z,6.43
2018-07-11T22:35:51.383Z,7.43
2018-07-11T22:38:19.164Z,5.93
2018-07-11T22:40:46.851Z,6.10
2018-07-11T22:43:14.603Z,6.20
2018-07-11T22:45:42.351Z,5.70
2018-07-11T22:48:10.032Z,6.60
2018-07-11T22:50:37.739Z,7.90
2018-07-11T22:53:05.352Z,6.27
2018-07-11T22:55:33.092Z,6.33
2018-07-11T22:58:00.779Z,7.10
2018-07-11T23:00:28.459Z,8.30
2018-07-11T23:02:56.196Z,5.50
2018-07-11T23:05:24.128Z,5.37
2018-07-11T23:07:51.747Z,5.80
2018-07-11T23:10:19.479Z,5.70
2018-07-11T23:12:47.220Z,6.33
2018-07-11T23:15:15.006Z,5.80
2018-07-11T23:17:42.772Z,5.77
2018-07-11T23:20:10.370Z,6.97
2018-07-11T23:22:38.008Z,5.20
2018-07-11T23:25:05.668Z,5.37
2018-07-11T23:27:33.431Z,6.10
2018-07-11T23:30:01.155Z,5.30
2018-07-11T23:32:28.793Z,5.50
2018-07-11T23:34:56.599Z,5.43
2018-07-11T23:37:24.211Z,5.03
2018-07-11T23:39:51.940Z,5.17
2018-07-11T23:42:19.635Z,5.50
2018-07-11T23:44:47.251Z,6.00
2018-07-11T23:47:14.948Z,5.37
2018-07-11T23:49:42.615Z,5.10
2018-07-11T23:52:10.405Z,5.13
2018-07-11T23:54:38.080Z,5.30
2018-07-11T23:57:05.896Z,4.83
2018-07-11T23:59:33.511Z,4.90
